Time;durP1;ratioP1;P1;durP2;ratioP2;P2;SDS_P1;SDS_P2;PMS_P1;PMS_P2;Temp;Humidity;BMP_temperature;BMP_pressure;BME280_temperature;BME280_humidity;BME280_pressure;Samples;Min_cycle;Max_cycle;Signal;HPM_P1;HPM_P2
2021/06/15 00:01:18;;;;;;;2.37;2.17;;;16.10;99.90;;;;;;4857943;29;20419;-77
2021/06/15 00:03:44;;;;;;;2.80;2.55;;;16.00;99.90;;;;;;4852817;29;20409;-77
2021/06/15 00:06:10;;;;;;;2.07;1.97;;;15.90;99.90;;;;;;4860870;29;20476;-77
2021/06/15 00:08:35;;;;;;;2.78;2.30;;;15.90;99.90;;;;;;4857925;29;20475;-76
2021/06/15 00:11:01;;;;;;;2.50;2.30;;;15.80;99.90;;;;;;4842756;29;20429;-76
2021/06/15 00:13:27;;;;;;;2.33;2.00;;;15.80;99.90;;;;;;4843624;29;20976;-76
2021/06/15 00:15:52;;;;;;;2.20;2.10;;;15.80;99.90;;;;;;4881523;29;20409;-76
2021/06/15 00:18:18;;;;;;;2.40;2.03;;;15.70;99.90;;;;;;4851559;29;20433;-76
2021/06/15 00:20:44;;;;;;;3.83;2.75;;;15.70;99.90;;;;;;4897248;29;20472;-76
2021/06/15 00:23:10;;;;;;;2.50;2.30;;;15.60;99.90;;;;;;4858255;29;20412;-76
2021/06/15 00:25:36;;;;;;;2.83;2.50;;;15.60;99.90;;;;;;4863867;29;20411;-75
2021/06/15 00:28:01;;;;;;;2.50;2.30;;;15.50;99.90;;;;;;4856359;29;20933;-76
2021/06/15 00:30:27;;;;;;;2.38;2.17;;;15.60;99.90;;;;;;4876285;29;20831;-75
2021/06/15 00:32:53;;;;;;;2.08;1.90;;;15.40;99.90;;;;;;4883793;29;20438;-75
2021/06/15 00:35:19;;;;;;;2.30;2.10;;;15.40;99.90;;;;;;4901257;29;20407;-75
2021/06/15 00:37:45;;;;;;;2.88;2.58;;;15.40;99.90;;;;;;4853828;29;20414;-75
2021/06/15 00:40:10;;;;;;;2.50;2.30;;;15.40;99.90;;;;;;4866896;29;20404;-75
2021/06/15 00:42:36;;;;;;;2.20;2.00;;;15.40;99.90;;;;;;4878390;29;20997;-76
2021/06/15 00:45:07;;;;;;;2.22;2.13;;;15.30;99.90;;;;;;4879942;29;20772;-77
2021/06/15 00:47:33;;;;;;;3.22;2.72;;;15.30;99.90;;;;;;4880939;29;20409;-75
2021/06/15 00:49:59;;;;;;;2.85;2.35;;;15.20;99.90;;;;;;4860431;29;20421;-76
2021/06/15 00:52:25;;;;;;;2.37;2.13;;;15.20;99.90;;;;;;4862034;29;20952;-76
2021/06/15 00:54:51;;;;;;;2.53;2.33;;;15.20;99.90;;;;;;4881342;29;20480;-74
2021/06/15 00:57:18;;;;;;;3.07;2.07;;;15.20;99.90;;;;;;4858518;29;20415;-75
2021/06/15 00:59:44;;;;;;;2.33;2.13;;;15.20;99.90;;;;;;4858533;29;20419;-76
2021/06/15 01:02:10;;;;;;;3.90;2.70;;;15.10;99.90;;;;;;4872538;29;20847;-75
2021/06/15 01:04:36;;;;;;;2.13;2.00;;;15.10;99.90;;;;;;4857278;29;20415;-76
2021/06/15 01:07:12;;;;;;;2.30;2.10;;;15.10;99.90;;;;;;4866299;29;20403;-75
2021/06/15 01:09:48;;;;;;;2.72;2.53;;;15.10;99.90;;;;;;4859540;29;20432;-75
2021/06/15 01:12:28;;;;;;;2.28;2.17;;;15.00;99.90;;;;;;4857550;29;20416;-75
2021/06/15 01:15:00;;;;;;;2.97;2.42;;;15.00;99.90;;;;;;4858106;29;20417;-75
2021/06/15 01:17:46;;;;;;;2.60;2.40;;;14.90;99.90;;;;;;4863542;29;20409;-75
2021/06/15 01:20:20;;;;;;;2.93;2.60;;;14.90;99.90;;;;;;4856564;29;20768;-75
2021/06/15 01:22:46;;;;;;;2.63;2.42;;;14.90;99.90;;;;;;4876061;29;20418;-75
2021/06/15 01:25:26;;;;;;;2.42;2.22;;;14.80;99.90;;;;;;4885707;29;20975;-75
2021/06/15 01:27:54;;;;;;;3.17;2.80;;;14.80;99.90;;;;;;4828001;29;20546;-75
2021/06/15 01:30:23;;;;;;;3.03;2.67;;;14.80;99.90;;;;;;4841415;29;20570;-74
2021/06/15 01:32:56;;;;;;;2.45;2.30;;;14.70;99.90;;;;;;4843113;29;20429;-76
2021/06/15 01:35:24;;;;;;;2.50;2.30;;;14.70;99.90;;;;;;4850038;29;20884;-76
2021/06/15 01:38:04;;;;;;;2.85;2.17;;;14.70;99.90;;;;;;4886855;29;20407;-76
2021/06/15 01:40:41;;;;;;;2.80;2.55;;;14.70;99.90;;;;;;4866078;29;20938;-74
2021/06/15 01:43:22;;;;;;;2.55;2.20;;;14.70;99.90;;;;;;4858117;29;20416;-74
2021/06/15 01:45:52;;;;;;;5.60;3.00;;;14.70;99.90;;;;;;4879232;29;20502;-75
2021/06/15 01:48:35;;;;;;;2.50;2.30;;;14.70;99.90;;;;;;4841996;29;20423;-76
2021/06/15 01:51:03;;;;;;;4.15;2.55;;;14.70;99.90;;;;;;4870944;29;20471;-74
2021/06/15 01:53:33;;;;;;;2.70;2.50;;;14.70;99.90;;;;;;4855955;29;20466;-76
2021/06/15 01:56:02;;;;;;;2.97;2.30;;;14.60;99.90;;;;;;4870032;29;20400;-75
2021/06/15 01:58:33;;;;;;;2.93;2.63;;;14.60;99.90;;;;;;4873002;29;20466;-76
2021/06/15 02:01:01;;;;;;;2.40;2.20;;;14.60;99.90;;;;;;4871804;29;20492;-76
2021/06/15 02:03:29;;;;;;;2.70;2.50;;;14.70;99.90;;;;;;4880416;29;20407;-75
2021/06/15 02:05:57;;;;;;;2.53;2.33;;;14.70;99.90;;;;;;4873062;29;20409;-75
2021/06/15 02:08:34;;;;;;;2.65;2.35;;;14.60;99.90;;;;;;4857876;29;20472;-77
2021/06/15 02:11:03;;;;;;;2.63;2.42;;;14.60;99.90;;;;;;4853419;29;20414;-76
2021/06/15 02:13:40;;;;;;;2.47;2.28;;;14.50;99.90;;;;;;4871431;29;20401;-75
2021/06/15 02:16:41;;;;;;;2.55;2.20;;;14.50;99.90;;;;;;4822147;29;20474;-76
2021/06/15 02:19:30;;;;;;;2.50;2.30;;;14.50;99.90;;;;;;4885936;29;20442;-77
2021/06/15 02:22:08;;;;;;;3.05;2.20;;;14.40;99.90;;;;;;4907071;29;20486;-78
2021/06/15 02:24:46;;;;;;;2.60;2.40;;;14.30;99.90;;;;;;4875798;29;20397;-77
2021/06/15 02:27:15;;;;;;;2.83;2.53;;;14.20;99.90;;;;;;4873160;29;20408;-76
2021/06/15 02:29:40;;;;;;;2.63;2.42;;;14.20;99.90;;;;;;4857193;29;20561;-79
2021/06/15 02:32:09;;;;;;;2.90;2.60;;;14.20;99.90;;;;;;4842389;29;20451;-75
2021/06/15 02:34:36;;;;;;;2.73;2.53;;;14.10;99.90;;;;;;4845886;29;20845;-76
2021/06/15 02:37:06;;;;;;;3.83;2.70;;;14.10;99.90;;;;;;4838867;29;20461;-76
2021/06/15 02:39:35;;;;;;;2.60;2.40;;;14.00;99.90;;;;;;4861855;29;20911;-77
2021/06/15 02:42:05;;;;;;;2.75;2.30;;;14.10;99.90;;;;;;4872681;29;20415;-76
2021/06/15 02:44:33;;;;;;;2.70;2.50;;;14.00;99.90;;;;;;4888111;29;21002;-76
2021/06/15 02:46:59;;;;;;;2.25;2.10;;;14.00;99.90;;;;;;4864591;29;20408;-75
2021/06/15 02:49:30;;;;;;;2.83;2.28;;;13.90;99.90;;;;;;4843227;29;20417;-76
2021/06/15 02:52:13;;;;;;;2.58;2.38;;;13.90;99.90;;;;;;4842522;29;20937;-75
2021/06/15 02:54:52;;;;;;;2.80;2.60;;;13.90;99.90;;;;;;4842121;29;20421;-76
2021/06/15 02:57:18;;;;;;;3.28;2.30;;;13.90;99.90;;;;;;4860905;29;20409;-76
2021/06/15 02:59:44;;;;;;;2.63;2.42;;;13.80;99.90;;;;;;4855761;29;20831;-74
2021/06/15 03:02:10;;;;;;;2.83;2.25;;;13.80;99.90;;;;;;4897312;29;20411;-76
2021/06/15 03:04:46;;;;;;;2.40;2.20;;;13.80;99.90;;;;;;4893494;29;20410;-75
2021/06/15 03:07:12;;;;;;;2.60;2.40;;;13.90;99.90;;;;;;4827825;29;20848;-76
2021/06/15 03:09:38;;;;;;;2.53;2.33;;;13.80;99.90;;;;;;4879919;29;20428;-77
2021/06/15 03:12:18;;;;;;;2.15;2.05;;;13.80;99.90;;;;;;4885461;29;20411;-79
2021/06/15 03:14:52;;;;;;;2.63;2.33;;;13.70;99.90;;;;;;4852058;29;20420;-79
2021/06/15 03:17:18;;;;;;;2.85;2.55;;;13.80;99.90;;;;;;4864236;29;20608;-78
2021/06/15 03:19:56;;;;;;;3.83;2.77;;;13.70;99.90;;;;;;4858133;29;20413;-76
2021/06/15 03:22:22;;;;;;;3.00;2.70;;;13.70;99.90;;;;;;4888050;29;20406;-76
2021/06/15 03:25:15;;;;;;;3.40;2.60;;;13.60;99.90;;;;;;4871080;29;20491;-76
2021/06/15 03:28:00;;;;;;;3.13;2.78;;;13.60;99.90;;;;;;4869231;29;20466;-77
2021/06/15 03:30:27;;;;;;;2.30;2.10;;;13.60;99.90;;;;;;4891058;29;20806;-76
2021/06/15 03:32:54;;;;;;;4.40;2.50;;;13.60;99.90;;;;;;4903914;29;20403;-75
2021/06/15 03:35:23;;;;;;;3.10;2.80;;;13.80;99.90;;;;;;4884680;29;20469;-76
2021/06/15 03:37:54;;;;;;;2.83;2.53;;;13.70;99.90;;;;;;4840598;29;20454;-76
2021/06/15 03:40:21;;;;;;;3.00;2.80;;;13.70;99.90;;;;;;4902432;29;20467;-76
2021/06/15 03:42:47;;;;;;;3.72;2.75;;;13.70;99.90;;;;;;4866464;29;20423;-78
2021/06/15 03:45:13;;;;;;;5.77;2.80;;;13.70;99.90;;;;;;4841173;29;20404;-77
2021/06/15 03:47:39;;;;;;;2.85;2.65;;;13.70;99.90;;;;;;4841516;29;20423;-75
2021/06/15 03:50:06;;;;;;;2.57;2.30;;;13.80;99.90;;;;;;4841613;29;20436;-77
2021/06/15 03:52:37;;;;;;;2.53;2.33;;;13.80;99.90;;;;;;4827983;29;20416;-75
2021/06/15 03:55:05;;;;;;;3.38;2.78;;;13.80;99.90;;;;;;4858075;29;20413;-75
2021/06/15 03:57:30;;;;;;;2.53;2.33;;;13.80;99.90;;;;;;4881880;29;20415;-76
2021/06/15 03:59:56;;;;;;;2.53;2.33;;;13.90;99.90;;;;;;4892539;29;20490;-75
2021/06/15 04:02:23;;;;;;;2.75;2.55;;;13.90;99.90;;;;;;4904329;29;20402;-77
2021/06/15 04:04:48;;;;;;;3.22;2.67;;;13.90;99.90;;;;;;4859010;29;20439;-75
2021/06/15 04:07:18;;;;;;;2.60;2.40;;;14.00;99.90;;;;;;4851099;29;20468;-76
2021/06/15 04:09:44;;;;;;;2.78;2.58;;;14.00;99.90;;;;;;4870046;29;20483;-76
2021/06/15 04:12:10;;;;;;;3.03;2.80;;;14.10;99.90;;;;;;4858637;29;20406;-77
2021/06/15 04:14:36;;;;;;;5.22;2.75;;;14.20;99.90;;;;;;4851245;29;20412;-78
2021/06/15 04:17:02;;;;;;;3.47;2.73;;;14.30;99.90;;;;;;4855083;29;20405;-77
2021/06/15 04:19:30;;;;;;;3.75;2.60;;;14.40;99.90;;;;;;4856073;29;20448;-77
2021/06/15 04:21:58;;;;;;;3.10;2.90;;;14.50;99.90;;;;;;4854284;29;20409;-76
2021/06/15 04:24:25;;;;;;;3.15;2.85;;;14.70;99.90;;;;;;4870459;29;20429;-76
2021/06/15 04:26:52;;;;;;;2.97;2.60;;;14.80;99.90;;;;;;4871806;29;20799;-75
2021/06/15 04:29:18;;;;;;;2.92;2.72;;;14.90;99.90;;;;;;4842182;29;20428;-75
2021/06/15 04:31:43;;;;;;;3.03;2.73;;;15.00;99.90;;;;;;4869750;29;20407;-76
2021/06/15 04:34:13;;;;;;;3.22;2.85;;;15.10;99.90;;;;;;4870014;29;21134;-77
2021/06/15 04:36:38;;;;;;;3.33;2.33;;;15.20;99.90;;;;;;4826540;29;20415;-77
2021/06/15 04:39:11;;;;;;;3.07;2.77;;;15.30;99.90;;;;;;4857800;29;20408;-76
2021/06/15 04:41:38;;;;;;;2.83;2.63;;;15.50;99.90;;;;;;4892851;29;20403;-76
2021/06/15 04:44:06;;;;;;;2.85;2.65;;;15.70;99.90;;;;;;4877557;29;20400;-76
2021/06/15 04:46:39;;;;;;;3.20;2.90;;;15.80;99.90;;;;;;4880750;29;20478;-76
2021/06/15 04:49:10;;;;;;;4.82;2.80;;;16.10;99.90;;;;;;4863603;29;20403;-77
2021/06/15 04:51:36;;;;;;;2.90;2.60;;;16.20;99.90;;;;;;4860701;29;20656;-78
2021/06/15 04:54:01;;;;;;;2.93;2.63;;;16.40;99.90;;;;;;4876754;29;20769;-80
2021/06/15 04:56:29;;;;;;;3.50;2.88;;;16.50;99.90;;;;;;4877122;29;20406;-80
2021/06/15 04:58:55;;;;;;;2.90;2.65;;;16.70;99.90;;;;;;4871217;29;20407;-81
2021/06/15 05:01:21;;;;;;;2.75;2.55;;;16.80;99.90;;;;;;4871448;29;20408;-77
2021/06/15 05:03:46;;;;;;;2.95;2.53;;;17.00;99.90;;;;;;4859160;29;20397;-76
2021/06/15 05:06:12;;;;;;;2.92;2.40;;;17.10;99.90;;;;;;4874133;29;20545;-76
2021/06/15 05:08:50;;;;;;;3.30;2.95;;;17.20;99.90;;;;;;4866520;29;20404;-77
2021/06/15 05:11:16;;;;;;;2.72;2.45;;;17.30;99.90;;;;;;4877648;29;20498;-77
2021/06/15 05:13:42;;;;;;;2.97;2.67;;;17.50;99.90;;;;;;4853506;29;20487;-77
2021/06/15 05:16:09;;;;;;;2.88;2.67;;;17.50;99.90;;;;;;4863962;29;20974;-77
2021/06/15 05:18:37;;;;;;;3.40;3.03;;;17.70;99.90;;;;;;4842063;29;20407;-79
2021/06/15 05:21:10;;;;;;;3.30;3.00;;;17.80;99.90;;;;;;4852455;29;20406;-77
2021/06/15 05:23:45;;;;;;;3.30;2.50;;;17.90;99.90;;;;;;4890893;29;21132;-76
2021/06/15 05:26:11;;;;;;;4.60;2.95;;;18.10;99.90;;;;;;4859546;29;20437;-77
2021/06/15 05:28:37;;;;;;;3.08;2.53;;;18.20;99.90;;;;;;4893355;29;20401;-77
2021/06/15 05:31:02;;;;;;;3.33;2.70;;;18.30;99.90;;;;;;4842807;29;20396;-77
2021/06/15 05:33:28;;;;;;;2.90;2.67;;;18.50;99.90;;;;;;4843664;29;20459;-77
2021/06/15 05:35:54;;;;;;;3.17;2.97;;;18.60;99.90;;;;;;4845533;29;21041;-77
2021/06/15 05:38:20;;;;;;;3.55;2.85;;;18.70;99.90;;;;;;4838972;29;20402;-77
2021/06/15 05:40:45;;;;;;;5.90;2.90;;;18.80;99.90;;;;;;4838319;29;20905;-77
2021/06/15 05:43:11;;;;;;;4.03;3.30;;;19.00;99.90;;;;;;4824174;29;20399;-77
2021/06/15 05:45:37;;;;;;;3.27;3.03;;;19.10;99.90;;;;;;4877310;29;20466;-77
2021/06/15 05:48:03;;;;;;;4.45;3.03;;;19.30;99.90;;;;;;4826947;29;21023;-77
2021/06/15 05:50:28;;;;;;;2.50;2.40;;;19.30;99.90;;;;;;4871957;29;20436;-77
2021/06/15 05:52:54;;;;;;;2.90;2.63;;;19.50;99.90;;;;;;4863643;29;20444;-77
2021/06/15 05:55:20;;;;;;;3.37;2.77;;;19.70;99.90;;;;;;4861480;29;20409;-77
2021/06/15 05:57:45;;;;;;;3.20;2.60;;;20.00;99.90;;;;;;4871622;29;21021;-77
2021/06/15 06:00:11;;;;;;;4.63;2.77;;;20.10;99.90;;;;;;4856879;29;20471;-78
2021/06/15 06:02:40;;;;;;;3.22;2.78;;;20.20;99.90;;;;;;4857608;29;20421;-78
2021/06/15 06:08:04;;;;;;;3.30;2.70;;;20.30;99.90;;;;;;4847472;29;20403;-77
2021/06/15 06:08:04;;;;;;;3.50;2.85;;;20.50;99.90;;;;;;4864313;29;20499;-78
2021/06/15 06:10:30;;;;;;;2.72;2.53;;;20.70;99.90;;;;;;4890123;29;20820;-77
2021/06/15 06:12:56;;;;;;;3.53;2.75;;;20.80;99.90;;;;;;4856763;29;20551;-77
2021/06/15 06:15:22;;;;;;;3.33;2.30;;;20.80;99.90;;;;;;4890225;29;20454;-77
2021/06/15 06:17:47;;;;;;;6.28;2.97;;;20.90;99.90;;;;;;4897026;29;23003;-77
2021/06/15 06:20:14;;;;;;;2.80;2.40;;;21.20;99.90;;;;;;4869138;29;21031;-77
2021/06/15 06:22:40;;;;;;;2.92;2.53;;;21.40;99.90;;;;;;4875903;29;20397;-78
2021/06/15 06:25:07;;;;;;;3.70;2.77;;;21.50;99.90;;;;;;4832693;29;21028;-77
2021/06/15 06:27:33;;;;;;;3.25;2.60;;;21.60;99.90;;;;;;4876501;29;20414;-77
2021/06/15 06:29:59;;;;;;;3.17;2.60;;;21.80;99.90;;;;;;4823148;29;20511;-78
2021/06/15 06:32:24;;;;;;;3.40;2.60;;;21.90;99.90;;;;;;4832667;29;20436;-79
2021/06/15 06:34:50;;;;;;;2.73;2.53;;;22.10;99.90;;;;;;4835676;29;20414;-78
2021/06/15 06:37:15;;;;;;;3.90;3.15;;;22.40;99.90;;;;;;4859540;29;20391;-78
2021/06/15 06:39:42;;;;;;;3.10;2.57;;;22.40;99.90;;;;;;4858070;29;20785;-78
2021/06/15 06:42:08;;;;;;;2.92;2.53;;;22.50;99.90;;;;;;4841080;29;20436;-77
2021/06/15 06:44:34;;;;;;;2.42;2.22;;;22.50;99.90;;;;;;4840724;29;20404;-77
2021/06/15 06:46:59;;;;;;;2.63;2.43;;;22.70;99.90;;;;;;4855401;29;20420;-77
2021/06/15 06:49:25;;;;;;;2.65;2.45;;;22.90;99.90;;;;;;4872147;29;20461;-77
2021/06/15 06:51:51;;;;;;;3.97;2.70;;;23.20;99.90;;;;;;4864071;29;20860;-77
2021/06/15 06:54:16;;;;;;;2.90;2.60;;;23.20;99.90;;;;;;4863568;29;20424;-76
2021/06/15 06:56:42;;;;;;;2.95;2.28;;;23.30;99.90;;;;;;4883396;29;21096;-77
2021/06/15 06:59:08;;;;;;;2.27;2.10;;;23.30;99.90;;;;;;4841528;29;20895;-77
2021/06/15 07:01:33;;;;;;;2.95;2.42;;;23.40;99.90;;;;;;4872692;29;20517;-77
2021/06/15 07:03:59;;;;;;;2.40;2.20;;;23.70;99.90;;;;;;4872909;29;20955;-76
2021/06/15 07:06:25;;;;;;;2.47;2.27;;;23.80;99.90;;;;;;4855587;29;20402;-76
2021/06/15 07:08:52;;;;;;;2.22;2.05;;;24.00;99.90;;;;;;4880085;29;20393;-76
2021/06/15 07:11:18;;;;;;;3.05;2.50;;;24.00;99.90;;;;;;4824664;29;20459;-77
2021/06/15 07:13:43;;;;;;;2.75;2.20;;;24.20;99.90;;;;;;4847412;29;20966;-75
2021/06/15 07:16:09;;;;;;;2.80;2.20;;;24.40;99.90;;;;;;4862201;29;20796;-76
2021/06/15 07:18:39;;;;;;;2.28;2.08;;;24.50;99.90;;;;;;4857518;29;20417;-77
2021/06/15 07:21:05;;;;;;;2.85;2.05;;;24.80;99.90;;;;;;4859611;29;20762;-79
2021/06/15 07:23:32;;;;;;;4.10;2.45;;;25.00;99.90;;;;;;4874500;29;20944;-78
2021/06/15 07:25:57;;;;;;;2.80;2.60;;;25.10;99.90;;;;;;4886237;29;20417;-78
2021/06/15 07:28:23;;;;;;;2.80;2.50;;;25.20;99.90;;;;;;4855750;29;20419;-77
2021/06/15 07:30:49;;;;;;;2.55;2.35;;;25.00;99.90;;;;;;4840094;29;20469;-78
2021/06/15 07:33:14;;;;;;;3.63;2.23;;;25.00;99.90;;;;;;4855876;29;20777;-77
2021/06/15 07:35:40;;;;;;;2.60;2.37;;;25.10;99.90;;;;;;4855844;29;20508;-77
2021/06/15 07:38:06;;;;;;;4.00;2.00;;;25.30;99.90;;;;;;4843574;29;20460;-79
2021/06/15 07:40:31;;;;;;;2.45;2.15;;;25.60;99.90;;;;;;4827090;29;20765;-79
2021/06/15 07:42:58;;;;;;;4.23;2.07;;;25.80;99.90;;;;;;4855979;29;20408;-77
2021/06/15 07:45:28;;;;;;;2.45;2.08;;;25.80;99.90;;;;;;4839551;29;20419;-78
2021/06/15 07:47:54;;;;;;;2.45;2.15;;;25.70;99.90;;;;;;4880208;29;21041;-78
2021/06/15 07:50:19;;;;;;;1.92;1.83;;;25.70;99.90;;;;;;4848815;29;20502;-78
2021/06/15 07:52:45;;;;;;;2.10;2.00;;;26.10;99.90;;;;;;4889626;29;20416;-77
2021/06/15 07:55:12;;;;;;;2.40;2.20;;;26.30;99.90;;;;;;4839969;29;20903;-76
2021/06/15 07:57:37;;;;;;;2.23;1.83;;;26.40;99.90;;;;;;4894113;29;20421;-75
2021/06/15 08:00:04;;;;;;;2.10;2.00;;;26.60;99.90;;;;;;4887838;29;20421;-75
2021/06/15 08:02:38;;;;;;;2.10;1.90;;;26.70;99.90;;;;;;4866834;29;20410;-75
2021/06/15 08:05:04;;;;;;;1.70;1.60;;;26.90;99.90;;;;;;4874250;29;20424;-75
2021/06/15 08:07:30;;;;;;;2.33;2.08;;;27.10;99.90;;;;;;4864944;29;20465;-76
2021/06/15 08:09:56;;;;;;;2.03;1.92;;;27.40;99.90;;;;;;4862909;29;21102;-77
2021/06/15 08:12:22;;;;;;;2.55;2.13;;;27.50;99.90;;;;;;4887784;29;20972;-78
2021/06/15 08:14:48;;;;;;;2.00;1.80;;;27.60;99.90;;;;;;4880749;29;20496;-78
2021/06/15 08:17:14;;;;;;;3.40;2.03;;;27.90;99.90;;;;;;4842008;29;20789;-77
2021/06/15 08:19:39;;;;;;;1.90;1.80;;;28.00;99.90;;;;;;4862300;29;20399;-77
2021/06/15 08:22:05;;;;;;;1.83;1.73;;;28.30;99.90;;;;;;4846518;29;20579;-78
2021/06/15 08:24:31;;;;;;;1.80;1.70;;;28.20;99.90;;;;;;4855123;29;20439;-77
2021/06/15 08:26:56;;;;;;;2.30;1.95;;;28.20;99.90;;;;;;4866099;29;20507;-77
2021/06/15 08:29:22;;;;;;;2.25;2.05;;;28.20;99.90;;;;;;4858923;29;20461;-78
2021/06/15 08:31:48;;;;;;;1.70;1.60;;;28.20;99.90;;;;;;4874712;29;20419;-78
2021/06/15 08:34:13;;;;;;;1.92;1.80;;;28.50;99.90;;;;;;4861750;29;20467;-78
2021/06/15 08:36:39;;;;;;;1.83;1.73;;;28.70;99.90;;;;;;4872206;29;20404;-76
2021/06/15 08:39:05;;;;;;;2.03;1.83;;;28.90;99.90;;;;;;4855870;29;20395;-78
2021/06/15 08:41:31;;;;;;;2.28;1.90;;;29.20;99.90;;;;;;4846317;29;20416;-78
2021/06/15 08:43:57;;;;;;;4.07;2.10;;;29.30;99.90;;;;;;4843117;29;20401;-78
2021/06/15 08:46:23;;;;;;;1.77;1.67;;;29.40;99.50;;;;;;4858491;29;20415;-79
2021/06/15 08:48:49;;;;;;;1.70;1.50;;;29.50;99.90;;;;;;4857340;29;20415;-78
2021/06/15 08:51:15;;;;;;;1.90;1.80;;;29.40;98.30;;;;;;4871085;29;20411;-78
2021/06/15 08:53:41;;;;;;;2.25;1.67;;;29.50;98.40;;;;;;4850273;29;20416;-76
2021/06/15 08:56:36;;;;;;;2.10;1.90;;;29.50;99.10;;;;;;4889104;29;20401;-80
2021/06/15 08:59:29;;;;;;;1.90;1.70;;;29.70;97.90;;;;;;4871718;29;20473;-79
2021/06/15 09:01:59;;;;;;;1.90;1.80;;;30.10;98.90;;;;;;4844035;29;20412;-78
2021/06/15 09:04:25;;;;;;;1.75;1.65;;;30.30;97.20;;;;;;4851286;29;20407;-80
2021/06/15 09:06:50;;;;;;;3.15;2.38;;;30.20;94.20;;;;;;4874202;29;20407;-81
2021/06/15 09:09:16;;;;;;;2.40;1.97;;;30.00;96.60;;;;;;4845684;29;20443;-79
2021/06/15 09:12:00;;;;;;;2.45;1.90;;;30.20;96.70;;;;;;4861804;29;20415;-78
2021/06/15 09:14:50;;;;;;;1.67;1.58;;;30.40;96.80;;;;;;4893112;29;20604;-78
2021/06/15 09:17:28;;;;;;;2.10;1.92;;;31.00;94.60;;;;;;4871750;29;20828;-80
2021/06/15 09:19:55;;;;;;;1.60;1.50;;;31.00;92.40;;;;;;4877935;29;20407;-77
2021/06/15 09:22:27;;;;;;;1.73;1.63;;;31.00;91.80;;;;;;4846779;29;20415;-77
2021/06/15 09:24:54;;;;;;;1.70;1.60;;;30.90;91.80;;;;;;4829221;29;21286;-76
2021/06/15 09:27:21;;;;;;;1.77;1.67;;;31.10;91.30;;;;;;4842011;29;20446;-77
2021/06/15 09:29:53;;;;;;;1.70;1.60;;;31.40;91.30;;;;;;4856725;29;20464;-77
2021/06/15 09:32:23;;;;;;;2.92;1.52;;;31.40;90.20;;;;;;4858284;29;20465;-77
2021/06/15 09:34:49;;;;;;;1.80;1.70;;;31.40;90.40;;;;;;4880943;29;20477;-79
2021/06/15 09:37:15;;;;;;;1.80;1.70;;;31.50;89.90;;;;;;4854615;29;20492;-79
2021/06/15 09:39:44;;;;;;;1.92;1.70;;;31.70;89.50;;;;;;4841383;29;20420;-78
2021/06/15 09:42:10;;;;;;;2.20;1.83;;;31.70;84.20;;;;;;4841911;29;20412;-76
2021/06/15 09:44:36;;;;;;;1.60;1.50;;;31.60;84.80;;;;;;4875321;29;20796;-77
2021/06/15 09:47:07;;;;;;;1.90;1.70;;;31.90;87.50;;;;;;4860389;29;20420;-78
2021/06/15 09:49:37;;;;;;;2.30;1.70;;;31.70;84.20;;;;;;4833272;29;20924;-78
2021/06/15 09:52:21;;;;;;;2.88;1.60;;;31.40;82.50;;;;;;4875866;29;21227;-77
2021/06/15 09:54:58;;;;;;;1.63;1.52;;;31.50;86.50;;;;;;4852047;29;20402;-79
2021/06/15 09:57:27;;;;;;;1.87;1.63;;;31.50;81.40;;;;;;4852580;29;20432;-77
2021/06/15 10:00:05;;;;;;;3.90;2.00;;;31.40;87.70;;;;;;4868457;29;20863;-77
2021/06/15 10:02:31;;;;;;;2.53;1.50;;;31.30;86.70;;;;;;4891953;29;20443;-77
2021/06/15 10:05:01;;;;;;;2.85;1.98;;;31.30;85.60;;;;;;4875844;29;20420;-77
2021/06/15 10:07:28;;;;;;;1.65;1.55;;;31.40;88.70;;;;;;4856005;29;20423;-76
2021/06/15 10:09:55;;;;;;;1.80;1.70;;;31.60;86.00;;;;;;4875566;29;20964;-77
2021/06/15 10:12:21;;;;;;;1.85;1.75;;;31.80;84.70;;;;;;4866581;29;20414;-77
2021/06/15 10:14:47;;;;;;;1.60;1.50;;;31.90;84.70;;;;;;4892689;29;20405;-77
2021/06/15 10:17:12;;;;;;;1.48;1.40;;;32.30;81.10;;;;;;4843253;29;20494;-76
2021/06/15 10:19:39;;;;;;;1.85;1.58;;;32.30;79.70;;;;;;4871806;29;20410;-77
2021/06/15 10:22:06;;;;;;;1.75;1.65;;;32.30;81.70;;;;;;4897281;29;20469;-77
2021/06/15 10:24:32;;;;;;;1.60;1.50;;;32.20;76.80;;;;;;4889313;29;20482;-76
2021/06/15 10:26:58;;;;;;;1.42;1.33;;;32.40;78.10;;;;;;4857665;29;20430;-77
2021/06/15 10:29:25;;;;;;;1.40;1.30;;;32.30;78.30;;;;;;4860380;29;20428;-77
2021/06/15 10:31:52;;;;;;;1.50;1.40;;;32.10;75.60;;;;;;4870599;29;20461;-78
2021/06/15 10:34:57;;;;;;;2.05;1.65;;;32.10;79.80;;;;;;4874909;29;20402;-79
2021/06/15 10:37:36;;;;;;;1.70;1.50;;;32.30;79.40;;;;;;4856947;29;20396;-79
2021/06/15 10:40:16;;;;;;;2.43;1.73;;;32.60;77.60;;;;;;4865383;29;20441;-80
2021/06/15 10:42:42;;;;;;;1.60;1.50;;;33.10;75.60;;;;;;4872345;29;20897;-79
2021/06/15 10:45:17;;;;;;;3.17;1.52;;;33.30;73.30;;;;;;4851090;29;20434;-81
2021/06/15 10:48:21;;;;;;;1.92;1.70;;;33.70;75.60;;;;;;4871559;29;22411;-79
2021/06/15 10:50:49;;;;;;;2.00;1.70;;;34.00;71.80;;;;;;4859063;29;20421;-77
2021/06/15 10:53:19;;;;;;;1.65;1.50;;;33.80;66.10;;;;;;4900530;29;20480;-78
2021/06/15 10:55:48;;;;;;;1.40;1.30;;;33.90;69.70;;;;;;4855077;29;20408;-78
2021/06/15 10:58:50;;;;;;;1.60;1.50;;;34.20;71.70;;;;;;4856532;29;20407;-79
2021/06/15 11:01:17;;;;;;;2.80;1.73;;;34.60;69.80;;;;;;4866794;29;20417;-79
2021/06/15 11:03:59;;;;;;;2.30;1.53;;;35.20;68.30;;;;;;4879935;29;20431;-79
2021/06/15 11:06:27;;;;;;;1.63;1.50;;;35.20;65.40;;;;;;4882112;29;20518;-80
2021/06/15 11:09:16;;;;;;;1.67;1.58;;;35.00;63.50;;;;;;4879380;29;20429;-79
2021/06/15 11:11:50;;;;;;;2.08;1.73;;;34.90;66.30;;;;;;4853804;29;20417;-78
2021/06/15 11:14:22;;;;;;;2.92;1.88;;;35.00;64.00;;;;;;4850518;29;20421;-79
2021/06/15 11:16:52;;;;;;;1.73;1.63;;;35.00;62.70;;;;;;4855315;29;20412;-79
2021/06/15 11:19:28;;;;;;;2.23;1.50;;;34.90;62.90;;;;;;4856049;29;20412;-80
2021/06/15 11:22:03;;;;;;;1.42;1.33;;;35.10;63.20;;;;;;4864650;29;20424;-80
2021/06/15 11:24:35;;;;;;;1.65;1.55;;;35.00;62.90;;;;;;4878534;29;20983;-79
2021/06/15 11:27:05;;;;;;;1.70;1.52;;;35.40;61.70;;;;;;4879490;29;20441;-80
2021/06/15 11:29:36;;;;;;;1.38;1.30;;;34.90;56.80;;;;;;4857774;29;20428;-79
2021/06/15 11:32:14;;;;;;;1.70;1.60;;;34.90;63.40;;;;;;4900867;29;20407;-80
2021/06/15 11:34:41;;;;;;;1.40;1.30;;;35.20;61.30;;;;;;4881294;29;20416;-81
2021/06/15 11:37:20;;;;;;;1.95;1.83;;;35.60;59.90;;;;;;4854240;29;20920;-81
2021/06/15 11:39:45;;;;;;;1.60;1.50;;;35.50;58.40;;;;;;4892233;29;20411;-81
2021/06/15 11:42:32;;;;;;;1.87;1.77;;;35.20;60.40;;;;;;4873927;29;20404;-81
2021/06/15 11:45:19;;;;;;;1.77;1.67;;;35.20;56.40;;;;;;4873035;29;20484;-80
2021/06/15 11:47:57;;;;;;;1.63;1.53;;;35.10;58.10;;;;;;4872374;29;20412;-81
2021/06/15 11:50:32;;;;;;;2.42;1.95;;;35.10;60.40;;;;;;4861776;29;20455;-82
2021/06/15 11:53:27;;;;;;;1.85;1.60;;;34.90;59.90;;;;;;4855438;29;20442;-80
2021/06/15 11:55:55;;;;;;;1.60;1.50;;;35.10;60.00;;;;;;4876854;29;20401;-81
2021/06/15 11:58:28;;;;;;;3.13;2.10;;;35.20;61.00;;;;;;4882268;29;20505;-82
2021/06/15 12:01:03;;;;;;;2.00;1.88;;;35.20;58.80;;;;;;4878533;29;20422;-83
2021/06/15 12:03:34;;;;;;;2.75;2.10;;;35.00;58.80;;;;;;4847515;29;20497;-81
2021/06/15 12:05:59;;;;;;;1.80;1.70;;;35.00;59.90;;;;;;4853109;29;20429;-85
2021/06/15 12:08:29;;;;;;;1.95;1.70;;;34.90;59.40;;;;;;4850001;29;20920;-84
2021/06/15 12:10:54;;;;;;;1.87;1.77;;;34.60;61.90;;;;;;4911434;29;20422;-81
2021/06/15 12:13:21;;;;;;;1.95;1.85;;;34.70;61.20;;;;;;4885220;29;20401;-79
2021/06/15 12:15:49;;;;;;;2.70;1.83;;;35.10;59.90;;;;;;4870401;29;20426;-80
2021/06/15 12:18:21;;;;;;;1.80;1.70;;;35.50;59.50;;;;;;4865339;29;20405;-82
2021/06/15 12:20:47;;;;;;;1.87;1.77;;;35.50;57.50;;;;;;4864898;29;20931;-81
2021/06/15 12:23:31;;;;;;;1.65;1.55;;;34.90;58.80;;;;;;4851313;29;20410;-80
2021/06/15 12:26:06;;;;;;;1.80;1.70;;;34.70;59.80;;;;;;4876967;29;20460;-81
2021/06/15 12:28:32;;;;;;;1.80;1.70;;;34.70;59.00;;;;;;4877930;29;20432;-80
2021/06/15 12:31:21;;;;;;;1.83;1.73;;;34.60;59.60;;;;;;4860651;29;20455;-82
2021/06/15 12:33:49;;;;;;;2.10;2.00;;;34.20;60.70;;;;;;4877006;29;20491;-81
2021/06/15 12:36:17;;;;;;;1.63;1.52;;;34.00;62.10;;;;;;4863181;29;20915;-81
2021/06/15 12:38:43;;;;;;;2.40;1.98;;;33.90;62.10;;;;;;4838417;29;20405;-81
2021/06/15 12:41:14;;;;;;;2.10;1.88;;;33.70;61.30;;;;;;4843966;29;20405;-81
2021/06/15 12:43:41;;;;;;;1.90;1.80;;;33.90;61.20;;;;;;4843831;29;20417;-85
2021/06/15 12:46:07;;;;;;;1.98;1.83;;;34.00;58.30;;;;;;4841877;29;20492;-82
2021/06/15 12:48:34;;;;;;;2.37;2.17;;;33.90;60.40;;;;;;4890361;29;20413;-80
2021/06/15 12:51:10;;;;;;;2.28;2.08;;;34.00;60.10;;;;;;4868926;29;20443;-81
2021/06/15 12:53:37;;;;;;;1.87;1.77;;;33.60;58.30;;;;;;4843968;29;20815;-79
2021/06/15 12:56:25;;;;;;;2.13;2.00;;;33.80;63.60;;;;;;4849948;29;20441;-81
2021/06/15 12:58:53;;;;;;;2.35;2.15;;;33.80;58.80;;;;;;4880835;29;20446;-80
2021/06/15 13:01:25;;;;;;;2.38;2.20;;;33.50;58.40;;;;;;4871817;29;20514;-79